createdAt,value
2023-03-11T00:02:43.999Z,96994.31
2023-03-11T00:05:35.701Z,96988.69
2023-03-11T00:08:23.954Z,96993.78
2023-03-11T00:11:09.113Z,96990.22
2023-03-11T00:13:53.678Z,96990.22
2023-03-11T00:16:38.776Z,96976.16
2023-03-11T00:19:23.771Z,96987.66
2023-03-11T00:22:08.878Z,96989.97
2023-03-11T00:24:53.420Z,96981.78
2023-03-11T00:27:38.059Z,96976.16
2023-03-11T00:30:24.329Z,96977.69
2023-03-11T00:33:11.769Z,96962.59
2023-03-11T00:35:58.487Z,96956.97
2023-03-11T00:38:43.202Z,96951.84
2023-03-11T00:41:30.873Z,96955.69
2023-03-11T00:44:15.691Z,96958.53
2023-03-11T00:47:00.879Z,96938.03
2023-03-11T00:49:45.883Z,96932.94
2023-03-11T00:52:30.444Z,96931.16
2023-03-11T00:55:20.029Z,96926.53
2023-03-11T00:58:06.564Z,96923.72
2023-03-11T01:01:19.803Z,96911.19
2023-03-11T01:04:05.116Z,96916.81
2023-03-11T01:06:49.986Z,96905.28
2023-03-11T01:09:35.396Z,96905.03
2023-03-11T01:12:20.360Z,96904.78
2023-03-11T01:15:06.123Z,96898.91
2023-03-11T01:17:51.065Z,96893.50
2023-03-11T01:20:37.876Z,96897.13
2023-03-11T01:23:22.908Z,96885.56
2023-03-11T01:26:08.198Z,96883.28
2023-03-11T01:28:53.045Z,96890.19
2023-03-11T01:31:38.393Z,96889.97
2023-03-11T01:34:22.870Z,96880.47
2023-03-11T01:37:07.424Z,96879.47
2023-03-11T01:39:51.808Z,96877.16
2023-03-11T01:42:37.032Z,96867.69
2023-03-11T01:46:01.818Z,96856.19
2023-03-11T01:48:50.285Z,96864.34
2023-03-11T01:51:42.676Z,96864.88
2023-03-11T01:54:37.043Z,96855.41
2023-03-11T01:57:22.863Z,96839.06
2023-03-11T02:00:10.681Z,96837.78
2023-03-11T02:03:01.653Z,96840.84
2023-03-11T02:05:48.538Z,96828.06
2023-03-11T02:08:33.625Z,96819.38
2023-03-11T02:11:24.189Z,96821.41
2023-03-11T02:14:09.148Z,96818.06
2023-03-11T02:16:56.606Z,96808.56
2023-03-11T02:20:19.473Z,96814.94
2023-03-11T02:23:04.136Z,96812.63
2023-03-11T02:26:01.558Z,96810.56
2023-03-11T02:28:49.826Z,96797.75
2023-03-11T02:31:37.795Z,96793.41
2023-03-11T02:34:28.921Z,96796.50
2023-03-11T02:37:16.610Z,96801.91
2023-03-11T02:40:22.239Z,96796.25
2023-03-11T02:43:12.442Z,96796.03
2023-03-11T02:45:58.292Z,96788.63
2023-03-11T02:48:44.030Z,96779.69
2023-03-11T02:51:30.386Z,96775.06
2023-03-11T02:54:15.782Z,96772.25
2023-03-11T02:57:01.056Z,96775.56
2023-03-11T02:59:45.825Z,96774.56
2023-03-11T03:02:32.131Z,96777.63
2023-03-11T03:05:20.093Z,96778.13
2023-03-11T03:08:05.216Z,96774.84
2023-03-11T03:10:50.040Z,96767.16
2023-03-11T03:13:35.802Z,96757.97
2023-03-11T03:16:20.395Z,96763.09
2023-03-11T03:19:06.498Z,96755.91
2023-03-11T03:21:51.621Z,96754.41
2023-03-11T03:24:38.784Z,96758.22
2023-03-11T03:27:24.242Z,96753.88
2023-03-11T03:30:10.947Z,96746.94
2023-03-11T03:32:56.399Z,96748.94
2023-03-11T03:35:44.752Z,96748.66
2023-03-11T03:38:56.867Z,96746.34
2023-03-11T03:41:45.727Z,96747.09
2023-03-11T03:44:30.745Z,96738.19
2023-03-11T03:47:17.647Z,96730.25
2023-03-11T03:50:05.741Z,96730.53
2023-03-11T03:52:50.752Z,96729.50
2023-03-11T03:55:36.691Z,96731.78
2023-03-11T03:58:21.729Z,96720.28
2023-03-11T04:01:08.372Z,96714.47
2023-03-11T04:03:54.284Z,96713.97
2023-03-11T04:06:39.359Z,96708.09
2023-03-11T04:09:25.510Z,96706.06
2023-03-11T04:12:14.706Z,96703.78
2023-03-11T04:14:59.939Z,96698.16
2023-03-11T04:17:46.144Z,96688.97
2023-03-11T04:20:31.474Z,96686.94
2023-03-11T04:23:16.380Z,96678.00
2023-03-11T04:26:01.438Z,96669.81
2023-03-11T04:28:46.361Z,96659.88
2023-03-11T04:31:32.824Z,96669.81
2023-03-11T04:34:20.663Z,96661.13
2023-03-11T04:37:05.911Z,96665.97
2023-03-11T04:39:52.812Z,96657.59
2023-03-11T04:42:38.565Z,96655.25
2023-03-11T04:45:23.909Z,96646.31
2023-03-11T04:48:12.384Z,96652.22
2023-03-11T04:50:58.822Z,96650.16
2023-03-11T04:53:44.941Z,96646.84
2023-03-11T04:56:30.333Z,96642.50
2023-03-11T04:59:15.824Z,96634.56
2023-03-11T05:02:02.970Z,96628.72
2023-03-11T05:04:49.968Z,96625.41
2023-03-11T05:07:35.674Z,96627.44
2023-03-11T05:10:23.732Z,96622.84
2023-03-11T05:13:12.717Z,96619.50
2023-03-11T05:15:59.222Z,96613.34
2023-03-11T05:18:43.940Z,96616.69
2023-03-11T05:21:31.683Z,96615.66
2023-03-11T05:24:17.149Z,96610.53
2023-03-11T05:27:02.786Z,96602.34
2023-03-11T05:29:48.477Z,96600.56
2023-03-11T05:32:34.807Z,96594.69
2023-03-11T05:35:20.260Z,96606.41
2023-03-11T05:38:05.373Z,96592.34
2023-03-11T05:40:50.739Z,96590.56
2023-03-11T05:43:36.014Z,96593.88
2023-03-11T05:46:21.991Z,96590.03
2023-03-11T05:49:07.148Z,96591.28
2023-03-11T05:51:54.363Z,96584.13
2023-03-11T05:54:41.352Z,96584.41
2023-03-11T05:57:26.789Z,96582.84
2023-03-11T06:00:12.393Z,96580.03
2023-03-11T06:03:05.084Z,96578.72
2023-03-11T06:05:52.103Z,96578.69
2023-03-11T06:08:37.449Z,96581.72
2023-03-11T06:11:26.241Z,96577.09
2023-03-11T06:14:13.238Z,96573.13
2023-03-11T06:17:00.189Z,96572.44
2023-03-11T06:19:45.343Z,96571.75
2023-03-11T06:22:30.125Z,96572.63
2023-03-11T06:25:15.064Z,96561.22
2023-03-11T06:28:01.333Z,96570.00
2023-03-11T06:30:46.979Z,96549.63
2023-03-11T06:33:33.528Z,96557.69
2023-03-11T06:36:19.971Z,96549.13
2023-03-11T06:39:04.980Z,96549.75
2023-03-11T06:41:50.271Z,96546.59
2023-03-11T06:44:35.851Z,96548.50
2023-03-11T06:47:21.056Z,96548.72
2023-03-11T06:50:08.592Z,96536.31
2023-03-11T06:52:53.594Z,96538.56
2023-03-11T06:55:38.556Z,96529.72
2023-03-11T06:58:23.467Z,96523.19
2023-03-11T07:01:18.883Z,96519.44
2023-03-11T07:04:03.884Z,96523.16
2023-03-11T07:06:49.994Z,96516.16
2023-03-11T07:09:39.158Z,96512.44
2023-03-11T07:12:25.709Z,96512.94
2023-03-11T07:15:10.931Z,96508.66
2023-03-11T07:17:56.100Z,96499.28
2023-03-11T07:20:41.076Z,96497.78
2023-03-11T07:23:26.058Z,96491.59
2023-03-11T07:26:14.245Z,96497.03
2023-03-11T07:28:59.319Z,96490.47
2023-03-11T07:31:44.641Z,96482.53
2023-03-11T07:34:29.509Z,96482.94
2023-03-11T07:37:15.355Z,96481.88
2023-03-11T07:40:00.552Z,96487.50
2023-03-11T07:42:45.348Z,96482.47
2023-03-11T07:45:30.298Z,96484.16
2023-03-11T07:48:15.289Z,96480.81
2023-03-11T07:51:05.547Z,96475.97
2023-03-11T07:53:53.200Z,96473.19
2023-03-11T07:56:38.216Z,96464.63
2023-03-11T07:59:23.327Z,96459.69
2023-03-11T08:02:10.330Z,96457.22
2023-03-11T08:04:56.592Z,96452.06
2023-03-11T08:07:41.387Z,96448.94
2023-03-11T08:10:26.203Z,96445.31
2023-03-11T08:13:11.050Z,96442.47
2023-03-11T08:15:55.995Z,96432.66
2023-03-11T08:18:41.934Z,96440.28
2023-03-11T08:21:30.315Z,96432.56
2023-03-11T08:24:15.103Z,96430.00
2023-03-11T08:27:00.127Z,96420.59
2023-03-11T08:29:45.320Z,96421.34
2023-03-11T08:32:30.980Z,96425.91
2023-03-11T08:35:17.072Z,96416.66
2023-03-11T08:38:02.379Z,96412.75
2023-03-11T08:40:47.161Z,96410.88
2023-03-11T08:43:32.335Z,96409.06
2023-03-11T08:46:25.065Z,96404.41
2023-03-11T08:49:09.943Z,96401.97
2023-03-11T08:51:54.846Z,96403.19
2023-03-11T08:54:40.132Z,96392.88
2023-03-11T08:57:25.294Z,96403.41
2023-03-11T09:00:13.166Z,96411.19
2023-03-11T09:02:58.905Z,96405.53
2023-03-11T09:05:43.806Z,96402.84
2023-03-11T09:08:29.085Z,96411.09
2023-03-11T09:11:15.590Z,96400.84
2023-03-11T09:14:00.129Z,96405.66
2023-03-11T09:16:45.658Z,96398.38
2023-03-11T09:19:30.339Z,96398.75
2023-03-11T09:22:16.099Z,96403.53
2023-03-11T09:25:00.979Z,96399.81
2023-03-11T09:27:46.566Z,96399.81
2023-03-11T09:30:31.483Z,96393.66
2023-03-11T09:33:16.193Z,96393.16
2023-03-11T09:36:01.182Z,96387.25
2023-03-11T09:38:47.170Z,96386.09
2023-03-11T09:41:47.891Z,96390.63
2023-03-11T09:44:58.733Z,96382.44
2023-03-11T09:48:05.383Z,96384.88
2023-03-11T09:50:58.004Z,96379.00
2023-03-11T09:53:52.066Z,96374.84
2023-03-11T09:56:37.992Z,96383.81
2023-03-11T09:59:30.662Z,96378.13
2023-03-11T10:02:20.711Z,96371.88
2023-03-11T10:05:19.380Z,96377.13
2023-03-11T10:08:28.537Z,96367.56
2023-03-11T10:11:24.294Z,96371.94
2023-03-11T10:14:27.617Z,96371.25
2023-03-11T10:17:39.858Z,96365.91
2023-03-11T10:20:47.880Z,96356.97
2023-03-11T10:23:54.395Z,96355.16
2023-03-11T10:26:48.526Z,96360.56
2023-03-11T10:29:45.483Z,96358.53
2023-03-11T10:32:53.605Z,96353.16
2023-03-11T10:35:43.987Z,96349.53
2023-03-11T10:38:48.952Z,96350.06
2023-03-11T10:41:46.109Z,96343.75
2023-03-11T10:44:35.096Z,96338.41
2023-03-11T10:47:23.185Z,96337.97
2023-03-11T10:50:16.354Z,96334.16
2023-03-11T10:53:09.154Z,96326.47
2023-03-11T10:55:56.684Z,96315.41
2023-03-11T10:58:48.397Z,96310.69
2023-03-11T11:01:33.531Z,96302.94
2023-03-11T11:04:27.727Z,96315.97
2023-03-11T11:07:28.417Z,96310.38
2023-03-11T11:10:22.340Z,96305.81
2023-03-11T11:13:13.229Z,96302.25
2023-03-11T11:16:02.542Z,96296.66
2023-03-11T11:18:51.255Z,96294.38
2023-03-11T11:21:49.843Z,96292.63
2023-03-11T11:24:34.722Z,96289.34
2023-03-11T11:27:27.103Z,96298.56
2023-03-11T11:30:18.075Z,96295.78
2023-03-11T11:33:32.750Z,96288.88
2023-03-11T11:36:18.477Z,96291.25
2023-03-11T11:39:15.998Z,96278.91
2023-03-11T11:42:01.203Z,96270.19
2023-03-11T11:44:49.958Z,96255.34
2023-03-11T11:47:37.261Z,96258.38
2023-03-11T11:50:43.884Z,96248.91
2023-03-11T11:53:46.173Z,96241.00
2023-03-11T11:56:31.202Z,96241.69
2023-03-11T11:59:21.511Z,96248.81
2023-03-11T12:02:15.844Z,96244.19
2023-03-11T12:05:28.522Z,96254.22
2023-03-11T12:08:16.197Z,96250.06
2023-03-11T12:11:06.046Z,96246.53
2023-03-11T12:14:02.565Z,96247.28
2023-03-11T12:16:51.741Z,96238.66
2023-03-11T12:19:50.118Z,96243.97
2023-03-11T12:22:40.736Z,96252.63
2023-03-11T12:25:36.198Z,96241.34
2023-03-11T12:28:44.660Z,96243.91
2023-03-11T12:31:38.287Z,96238.31
2023-03-11T12:34:24.748Z,96242.94
2023-03-11T12:37:14.272Z,96240.09
2023-03-11T12:39:59.208Z,96237.75
2023-03-11T12:42:45.502Z,96235.88
2023-03-11T12:45:51.200Z,96236.56
2023-03-11T12:48:45.705Z,96232.69
2023-03-11T12:51:38.515Z,96246.28
2023-03-11T12:54:33.748Z,96231.94
2023-03-11T12:57:18.613Z,96231.38
2023-03-11T13:00:18.045Z,96226.94
2023-03-11T13:03:06.194Z,96232.25
2023-03-11T13:05:58.816Z,96223.53
2023-03-11T13:08:45.792Z,96232.75
2023-03-11T13:11:33.981Z,96222.53
2023-03-11T13:14:35.457Z,96224.53
2023-03-11T13:17:26.091Z,96218.34
2023-03-11T13:20:41.190Z,96225.59
2023-03-11T13:23:29.027Z,96223.44
2023-03-11T13:26:37.186Z,96226.41
2023-03-11T13:29:28.707Z,96235.84
2023-03-11T13:32:19.784Z,96229.47
2023-03-11T13:35:07.313Z,96221.81
2023-03-11T13:38:39.018Z,96223.56
2023-03-11T13:41:34.550Z,96222.03
2023-03-11T13:44:19.391Z,96214.34
2023-03-11T13:47:06.878Z,96217.13
2023-03-11T13:50:08.758Z,96222.63
2023-03-11T13:52:54.661Z,96214.00
2023-03-11T13:55:47.174Z,96213.34
2023-03-11T13:58:31.992Z,96214.88
2023-03-11T14:01:18.686Z,96219.44
2023-03-11T14:04:10.753Z,96225.91
2023-03-11T14:06:55.427Z,96223.78
2023-03-11T14:09:40.538Z,96227.19
2023-03-11T14:12:31.359Z,96235.94
2023-03-11T14:15:22.951Z,96225.75
2023-03-11T14:18:28.139Z,96233.81
2023-03-11T14:21:16.591Z,96240.63
2023-03-11T14:24:03.039Z,96247.69
2023-03-11T14:26:49.640Z,96253.19
2023-03-11T14:29:37.239Z,96243.28
2023-03-11T14:32:33.646Z,96246.47
2023-03-11T14:35:20.184Z,96255.41
2023-03-11T14:38:21.060Z,96258.56
2023-03-11T14:41:06.661Z,96265.00
2023-03-11T14:43:53.550Z,96264.53
2023-03-11T14:46:39.081Z,96262.53
2023-03-11T14:49:23.883Z,96266.91
2023-03-11T14:52:29.903Z,96268.41
2023-03-11T14:55:40.881Z,96268.88
2023-03-11T14:58:35.306Z,96273.00
2023-03-11T15:01:28.392Z,96270.91
2023-03-11T15:04:23.595Z,96277.28
2023-03-11T15:07:08.545Z,96269.59
2023-03-11T15:09:54.148Z,96268.56
2023-03-11T15:12:44.307Z,96271.34
2023-03-11T15:15:29.254Z,96278.25
2023-03-11T15:18:21.038Z,96276.19
2023-03-11T15:21:18.786Z,96279.97
2023-03-11T15:24:06.122Z,96277.63
2023-03-11T15:26:59.197Z,96276.03
2023-03-11T15:29:51.806Z,96278.34
2023-03-11T15:32:43.437Z,96284.97
2023-03-11T15:35:30.725Z,96286.50
2023-03-11T15:38:27.614Z,96289.53
2023-03-11T15:41:12.249Z,96284.19
2023-03-11T15:44:01.734Z,96283.47
2023-03-11T15:46:46.665Z,96284.75
2023-03-11T15:49:31.545Z,96280.69
2023-03-11T15:52:18.651Z,96288.91
2023-03-11T15:55:04.249Z,96289.94
2023-03-11T15:57:52.246Z,96285.59
2023-03-11T16:00:40.045Z,96291.75
2023-03-11T16:03:24.692Z,96304.84
2023-03-11T16:06:09.533Z,96297.69
2023-03-11T16:08:54.554Z,96309.19
2023-03-11T16:11:40.507Z,96331.00
2023-03-11T16:14:25.607Z,96317.84
2023-03-11T16:17:13.894Z,96333.41
2023-03-11T16:19:58.918Z,96333.22
2023-03-11T16:22:44.457Z,96342.81
2023-03-11T16:25:33.625Z,96343.91
2023-03-11T16:28:18.586Z,96348.06
2023-03-11T16:31:03.863Z,96349.59
2023-03-11T16:33:49.550Z,96370.91
2023-03-11T16:36:34.106Z,96365.31
2023-03-11T16:39:18.950Z,96369.66
2023-03-11T16:42:04.213Z,96373.50
2023-03-11T16:44:49.524Z,96376.34
2023-03-11T16:47:33.962Z,96369.69
2023-03-11T16:50:20.633Z,96387.66
2023-03-11T16:53:05.853Z,96394.56
2023-03-11T16:55:51.235Z,96389.78
2023-03-11T16:58:35.843Z,96391.56
2023-03-11T17:01:22.042Z,96408.75
2023-03-11T17:04:07.417Z,96400.06
2023-03-11T17:06:52.293Z,96394.94
2023-03-11T17:09:37.356Z,96401.13
2023-03-11T17:12:22.553Z,96403.19
2023-03-11T17:15:07.946Z,96408.06
2023-03-11T17:17:52.805Z,96410.41
2023-03-11T17:20:39.767Z,96417.31
2023-03-11T17:23:24.464Z,96428.66
2023-03-11T17:26:15.718Z,96426.63
2023-03-11T17:29:00.392Z,96414.91
2023-03-11T17:31:45.785Z,96427.16
2023-03-11T17:34:30.832Z,96421.03
2023-03-11T17:37:16.084Z,96433.34
2023-03-11T17:40:00.974Z,96434.66
2023-03-11T17:42:45.998Z,96434.94
2023-03-11T17:45:31.021Z,96436.97
2023-03-11T17:48:16.426Z,96424.94
2023-03-11T17:51:12.691Z,96444.91
2023-03-11T17:53:57.817Z,96448.47
2023-03-11T17:56:42.706Z,96432.41
2023-03-11T17:59:27.392Z,96446.19
2023-03-11T18:02:14.091Z,96450.81
2023-03-11T18:04:59.012Z,96453.38
2023-03-11T18:07:43.902Z,96458.72
2023-03-11T18:10:28.986Z,96459.25
2023-03-11T18:13:13.890Z,96461.31
2023-03-11T18:16:04.633Z,96461.31
2023-03-11T18:18:50.450Z,96457.00
2023-03-11T18:21:34.996Z,96469.81
2023-03-11T18:24:19.965Z,96456.78
2023-03-11T18:27:04.908Z,96473.16
2023-03-11T18:29:50.447Z,96471.34
2023-03-11T18:32:35.334Z,96470.09
2023-03-11T18:35:21.718Z,96484.63
2023-03-11T18:38:06.412Z,96487.97
2023-03-11T18:40:57.533Z,96497.44
2023-03-11T18:43:42.414Z,96493.88
2023-03-11T18:46:32.779Z,96500.78
2023-03-11T18:49:17.605Z,96501.31
2023-03-11T18:52:02.948Z,96517.13
2023-03-11T18:54:48.576Z,96507.72
2023-03-11T18:57:32.964Z,96514.34
2023-03-11T19:00:21.771Z,96515.13
2023-03-11T19:03:12.018Z,96517.94
2023-03-11T19:05:57.017Z,96532.97
2023-03-11T19:08:42.779Z,96529.66
2023-03-11T19:11:28.203Z,96530.44
2023-03-11T19:14:12.908Z,96547.03
2023-03-11T19:16:57.869Z,96547.00
2023-03-11T19:19:43.018Z,96551.84
2023-03-11T19:22:27.935Z,96544.69
2023-03-11T19:25:12.948Z,96560.25
2023-03-11T19:27:57.848Z,96556.66
2023-03-11T19:30:43.058Z,96567.13
2023-03-11T19:33:28.253Z,96563.31
2023-03-11T19:36:13.223Z,96578.59
2023-03-11T19:38:58.016Z,96578.59
2023-03-11T19:41:42.920Z,96579.38
2023-03-11T19:44:27.942Z,96577.56
2023-03-11T19:47:12.780Z,96584.69
2023-03-11T19:49:58.058Z,96586.47
2023-03-11T19:52:42.729Z,96581.06
2023-03-11T19:55:27.923Z,96582.59
2023-03-11T19:58:12.752Z,96593.81
2023-03-11T20:00:59.263Z,96592.78
2023-03-11T20:03:44.299Z,96591.50
2023-03-11T20:06:29.023Z,96580.25
2023-03-11T20:09:15.553Z,96598.06
2023-03-11T20:12:00.643Z,96609.75
2023-03-11T20:14:45.963Z,96611.50
2023-03-11T20:17:30.823Z,96611.72
2023-03-11T20:20:16.087Z,96631.53
2023-03-11T20:23:01.508Z,96624.34
2023-03-11T20:25:46.115Z,96629.59
2023-03-11T20:28:31.105Z,96623.94
2023-03-11T20:31:21.412Z,96627.00
2023-03-11T20:34:06.639Z,96649.34
2023-03-11T20:36:51.503Z,96630.69
2023-03-11T20:39:38.071Z,96630.38
2023-03-11T20:42:23.082Z,96626.53
2023-03-11T20:45:08.664Z,96614.81
2023-03-11T20:47:53.371Z,96637.22
2023-03-11T20:50:38.383Z,96638.41
2023-03-11T20:53:24.751Z,96641.50
2023-03-11T20:56:12.901Z,96652.16
2023-03-11T20:58:58.481Z,96665.59
2023-03-11T21:01:45.198Z,96663.06
2023-03-11T21:04:30.090Z,96666.31
2023-03-11T21:07:14.911Z,96663.38
2023-03-11T21:10:00.931Z,96671.13
2023-03-11T21:12:45.896Z,96674.34
2023-03-11T21:15:30.950Z,96697.22
2023-03-11T21:18:16.138Z,96694.19
2023-03-11T21:21:03.153Z,96719.38
2023-03-11T21:23:48.378Z,96704.78
2023-03-11T21:26:34.924Z,96701.00
2023-03-11T21:29:19.829Z,96710.84
2023-03-11T21:32:05.328Z,96717.72
2023-03-11T21:34:50.750Z,96715.06
2023-03-11T21:37:35.335Z,96720.16
2023-03-11T21:40:20.694Z,96732.97
2023-03-11T21:43:05.830Z,96744.00
2023-03-11T21:45:52.925Z,96753.41
2023-03-11T21:48:38.915Z,96755.59
2023-03-11T21:51:24.886Z,96755.28
2023-03-11T21:54:11.842Z,96779.53
2023-03-11T21:56:56.584Z,96787.00
2023-03-11T21:59:41.805Z,96783.59
2023-03-11T22:02:26.435Z,96803.19
2023-03-11T22:05:11.773Z,96801.13
2023-03-11T22:07:57.043Z,96809.06
2023-03-11T22:10:42.036Z,96818.84
2023-03-11T22:13:26.890Z,96821.28
2023-03-11T22:16:11.976Z,96819.59
2023-03-11T22:18:57.126Z,96823.47
2023-03-11T22:21:41.825Z,96829.63
2023-03-11T22:24:26.809Z,96823.34
2023-03-11T22:27:11.741Z,96832.34
2023-03-11T22:29:56.443Z,96840.78
2023-03-11T22:32:41.165Z,96850.59
2023-03-11T22:35:25.839Z,96845.41
2023-03-11T22:38:11.231Z,96852.00
2023-03-11T22:40:56.570Z,96855.97
2023-03-11T22:43:41.523Z,96861.56
2023-03-11T22:46:26.730Z,96874.06
2023-03-11T22:49:11.254Z,96874.72
2023-03-11T22:51:56.051Z,96884.50
2023-03-11T22:54:40.664Z,96881.63
2023-03-11T22:57:25.835Z,96910.41
2023-03-11T23:00:20.172Z,96905.59
2023-03-11T23:03:06.031Z,96908.66
2023-03-11T23:05:51.355Z,96906.69
2023-03-11T23:08:36.449Z,96927.22
2023-03-11T23:11:21.498Z,96922.94
2023-03-11T23:14:06.075Z,96938.53
2023-03-11T23:16:50.745Z,96931.94
2023-03-11T23:19:36.119Z,96931.16
2023-03-11T23:22:20.648Z,96954.34
2023-03-11T23:25:08.863Z,96950.06
2023-03-11T23:27:53.904Z,96951.63
2023-03-11T23:30:40.253Z,96951.63
2023-03-11T23:33:25.398Z,96957.66
2023-03-11T23:36:11.864Z,96969.38
2023-03-11T23:38:57.642Z,96983.63
2023-03-11T23:41:42.289Z,96984.53
2023-03-11T23:44:27.186Z,96991.34
2023-03-11T23:47:12.182Z,96996.81
2023-03-11T23:49:56.875Z,96992.75
2023-03-11T23:52:41.809Z,97009.13
2023-03-11T23:55:26.322Z,97011.66
2023-03-11T23:58:11.082Z,97016.25
